Walkerville, Illinois
Current Conditions -  °F | °C
As of 10:15 AM on Tuesday 21 Oct 2014 (Local Time) from KPPQ Reporting Station
Clear Clear  
Wind Chill: 56°   Ceiling: Unl
Heat Index: 56°   Visibility: 10mi
Dew Point: 44°   Wind: 8mph
Humidity: 66%   Direction: 40°NE
Pressure: 30.17"   Gusts: NA
Location:  39.403°N, 90.4171°W
Report Text: KPPQ 211515Z AUTO 04007KT 10SM CLR 13/07 A3017 RMK AO2 T01310068
Loading
Personal Weather Stations






























Interactive Weather Map
Tropical Storm Tracking
New forecast layout! Learn more

10-Day Weather Forecast

Advertisements
Track Severe Weather on mobile